sensor_id;sensor_type;location;lat;lon;timestamp;temperature;humidity
16040;DHT22;8124;48.634;8.120;2023-05-29T00:02:04;20.90;49.60
16040;DHT22;8124;48.634;8.120;2023-05-29T00:07:09;20.50;49.70
16040;DHT22;8124;48.634;8.120;2023-05-29T00:12:12;20.50;50.60
16040;DHT22;8124;48.634;8.120;2023-05-29T00:17:15;20.40;51.50
16040;DHT22;8124;48.634;8.120;2023-05-29T00:22:19;20.30;52.60
16040;DHT22;8124;48.634;8.120;2023-05-29T00:27:22;20.40;53.80
16040;DHT22;8124;48.634;8.120;2023-05-29T00:32:25;20.10;54.60
16040;DHT22;8124;48.634;8.120;2023-05-29T00:37:30;20.20;56.00
16040;DHT22;8124;48.634;8.120;2023-05-29T00:42:33;20.10;56.90
16040;DHT22;8124;48.634;8.120;2023-05-29T00:47:36;20.20;57.30
16040;DHT22;8124;48.634;8.120;2023-05-29T00:52:41;20.10;57.80
16040;DHT22;8124;48.634;8.120;2023-05-29T00:57:45;20.00;58.20
16040;DHT22;8124;48.634;8.120;2023-05-29T01:02:49;19.40;58.00
16040;DHT22;8124;48.634;8.120;2023-05-29T01:07:56;19.20;58.90
16040;DHT22;8124;48.634;8.120;2023-05-29T01:13:03;19.10;60.20
16040;DHT22;8124;48.634;8.120;2023-05-29T01:18:22;19.10;61.90
16040;DHT22;8124;48.634;8.120;2023-05-29T01:23:51;18.90;62.60
16040;DHT22;8124;48.634;8.120;2023-05-29T01:28:57;18.60;63.20
16040;DHT22;8124;48.634;8.120;2023-05-29T01:34:03;18.50;64.10
16040;DHT22;8124;48.634;8.120;2023-05-29T01:39:06;18.40;65.70
16040;DHT22;8124;48.634;8.120;2023-05-29T01:44:11;18.30;67.60
16040;DHT22;8124;48.634;8.120;2023-05-29T01:49:15;18.30;69.90
16040;DHT22;8124;48.634;8.120;2023-05-29T01:54:19;18.20;72.10
16040;DHT22;8124;48.634;8.120;2023-05-29T01:59:24;18.20;74.60
16040;DHT22;8124;48.634;8.120;2023-05-29T02:04:28;18.20;77.00
16040;DHT22;8124;48.634;8.120;2023-05-29T02:09:31;18.00;80.20
16040;DHT22;8124;48.634;8.120;2023-05-29T02:14:36;18.10;83.20
16040;DHT22;8124;48.634;8.120;2023-05-29T02:19:39;18.00;85.80
16040;DHT22;8124;48.634;8.120;2023-05-29T02:24:42;17.70;88.00
16040;DHT22;8124;48.634;8.120;2023-05-29T02:29:46;17.60;90.50
16040;DHT22;8124;48.634;8.120;2023-05-29T02:34:49;17.70;92.10
16040;DHT22;8124;48.634;8.120;2023-05-29T02:39:53;17.70;93.00
16040;DHT22;8124;48.634;8.120;2023-05-29T02:44:58;17.80;94.50
16040;DHT22;8124;48.634;8.120;2023-05-29T02:50:01;17.60;95.50
16040;DHT22;8124;48.634;8.120;2023-05-29T02:55:06;17.40;96.70
16040;DHT22;8124;48.634;8.120;2023-05-29T03:00:11;17.60;98.30
16040;DHT22;8124;48.634;8.120;2023-05-29T03:05:15;17.50;99.10
16040;DHT22;8124;48.634;8.120;2023-05-29T03:10:19;17.50;99.90
16040;DHT22;8124;48.634;8.120;2023-05-29T03:15:23;17.30;99.90
16040;DHT22;8124;48.634;8.120;2023-05-29T03:20:26;17.40;99.90
16040;DHT22;8124;48.634;8.120;2023-05-29T03:25:32;17.30;99.90
16040;DHT22;8124;48.634;8.120;2023-05-29T03:30:37;17.10;99.90
16040;DHT22;8124;48.634;8.120;2023-05-29T03:35:40;17.20;99.90
16040;DHT22;8124;48.634;8.120;2023-05-29T03:40:43;16.90;99.90
16040;DHT22;8124;48.634;8.120;2023-05-29T03:45:47;16.70;99.90
16040;DHT22;8124;48.634;8.120;2023-05-29T03:50:51;16.60;99.90
16040;DHT22;8124;48.634;8.120;2023-05-29T03:56:00;16.60;99.90
16040;DHT22;8124;48.634;8.120;2023-05-29T04:01:05;16.60;99.90
16040;DHT22;8124;48.634;8.120;2023-05-29T04:06:08;16.50;99.90
16040;DHT22;8124;48.634;8.120;2023-05-29T04:11:27;16.70;99.90
16040;DHT22;8124;48.634;8.120;2023-05-29T04:16:31;16.20;99.90
16040;DHT22;8124;48.634;8.120;2023-05-29T04:21:34;16.50;99.90
16040;DHT22;8124;48.634;8.120;2023-05-29T04:26:37;16.50;99.90
16040;DHT22;8124;48.634;8.120;2023-05-29T04:31:44;16.50;99.90
16040;DHT22;8124;48.634;8.120;2023-05-29T04:36:49;16.20;99.90
16040;DHT22;8124;48.634;8.120;2023-05-29T04:46:59;16.30;99.90
16040;DHT22;8124;48.634;8.120;2023-05-29T04:52:05;16.50;99.90
16040;DHT22;8124;48.634;8.120;2023-05-29T04:57:08;16.40;99.90
16040;DHT22;8124;48.634;8.120;2023-05-29T05:02:14;16.50;99.90
16040;DHT22;8124;48.634;8.120;2023-05-29T05:07:17;16.80;99.90
16040;DHT22;8124;48.634;8.120;2023-05-29T05:12:21;16.90;99.90
16040;DHT22;8124;48.634;8.120;2023-05-29T05:17:25;16.80;99.90
16040;DHT22;8124;48.634;8.120;2023-05-29T05:22:29;16.90;99.90
16040;DHT22;8124;48.634;8.120;2023-05-29T05:27:33;17.10;99.90
16040;DHT22;8124;48.634;8.120;2023-05-29T05:32:38;17.30;99.90
16040;DHT22;8124;48.634;8.120;2023-05-29T05:37:41;17.60;99.90
16040;DHT22;8124;48.634;8.120;2023-05-29T05:42:45;17.70;99.90
16040;DHT22;8124;48.634;8.120;2023-05-29T05:47:50;17.80;99.90
16040;DHT22;8124;48.634;8.120;2023-05-29T05:52:57;18.00;99.90
16040;DHT22;8124;48.634;8.120;2023-05-29T05:58:00;18.10;99.90
16040;DHT22;8124;48.634;8.120;2023-05-29T06:03:05;18.30;99.90
16040;DHT22;8124;48.634;8.120;2023-05-29T06:08:27;18.40;99.90
16040;DHT22;8124;48.634;8.120;2023-05-29T06:13:31;18.60;99.90
16040;DHT22;8124;48.634;8.120;2023-05-29T06:18:41;19.00;99.90
16040;DHT22;8124;48.634;8.120;2023-05-29T06:23:44;18.90;99.90
16040;DHT22;8124;48.634;8.120;2023-05-29T06:28:47;19.00;99.90
16040;DHT22;8124;48.634;8.120;2023-05-29T06:33:52;19.20;99.90
16040;DHT22;8124;48.634;8.120;2023-05-29T06:38:55;19.20;99.90
16040;DHT22;8124;48.634;8.120;2023-05-29T06:43:58;19.40;99.90
16040;DHT22;8124;48.634;8.120;2023-05-29T06:49:04;19.60;99.90
16040;DHT22;8124;48.634;8.120;2023-05-29T06:54:08;19.20;99.90
16040;DHT22;8124;48.634;8.120;2023-05-29T06:59:12;19.50;99.90
16040;DHT22;8124;48.634;8.120;2023-05-29T07:04:18;19.60;99.90
16040;DHT22;8124;48.634;8.120;2023-05-29T07:09:21;19.80;99.90
16040;DHT22;8124;48.634;8.120;2023-05-29T07:14:26;19.90;99.90
16040;DHT22;8124;48.634;8.120;2023-05-29T07:19:30;19.90;99.90
16040;DHT22;8124;48.634;8.120;2023-05-29T07:24:35;19.80;99.90
16040;DHT22;8124;48.634;8.120;2023-05-29T07:29:40;20.00;99.90
16040;DHT22;8124;48.634;8.120;2023-05-29T07:34:44;19.90;99.90
16040;DHT22;8124;48.634;8.120;2023-05-29T07:39:49;20.10;99.90
16040;DHT22;8124;48.634;8.120;2023-05-29T07:45:12;20.40;99.90
16040;DHT22;8124;48.634;8.120;2023-05-29T07:50:18;20.50;99.90
16040;DHT22;8124;48.634;8.120;2023-05-29T07:55:21;20.50;99.90
16040;DHT22;8124;48.634;8.120;2023-05-29T08:00:25;20.60;99.90
16040;DHT22;8124;48.634;8.120;2023-05-29T08:05:29;20.70;99.90
16040;DHT22;8124;48.634;8.120;2023-05-29T08:10:35;20.90;99.90
16040;DHT22;8124;48.634;8.120;2023-05-29T08:15:39;21.00;99.90
16040;DHT22;8124;48.634;8.120;2023-05-29T08:20:43;21.10;99.90
16040;DHT22;8124;48.634;8.120;2023-05-29T08:25:46;21.30;99.90
16040;DHT22;8124;48.634;8.120;2023-05-29T08:30:49;21.50;99.90
16040;DHT22;8124;48.634;8.120;2023-05-29T08:35:54;21.30;99.90
16040;DHT22;8124;48.634;8.120;2023-05-29T08:40:57;21.30;99.90
16040;DHT22;8124;48.634;8.120;2023-05-29T08:46:01;21.40;99.90
16040;DHT22;8124;48.634;8.120;2023-05-29T08:51:07;21.50;99.90
16040;DHT22;8124;48.634;8.120;2023-05-29T08:56:10;21.70;99.90
16040;DHT22;8124;48.634;8.120;2023-05-29T09:01:31;21.80;99.90
16040;DHT22;8124;48.634;8.120;2023-05-29T09:06:36;21.90;99.90
16040;DHT22;8124;48.634;8.120;2023-05-29T09:11:40;21.80;99.90
16040;DHT22;8124;48.634;8.120;2023-05-29T09:16:43;22.00;99.90
16040;DHT22;8124;48.634;8.120;2023-05-29T09:21:47;22.10;99.90
16040;DHT22;8124;48.634;8.120;2023-05-29T09:26:51;22.20;99.90
16040;DHT22;8124;48.634;8.120;2023-05-29T09:31:54;22.40;99.90
16040;DHT22;8124;48.634;8.120;2023-05-29T09:37:03;22.50;99.90
16040;DHT22;8124;48.634;8.120;2023-05-29T09:42:10;23.00;99.90
16040;DHT22;8124;48.634;8.120;2023-05-29T09:47:14;22.80;99.70
16040;DHT22;8124;48.634;8.120;2023-05-29T09:52:22;22.30;98.20
16040;DHT22;8124;48.634;8.120;2023-05-29T09:57:27;22.50;98.10
16040;DHT22;8124;48.634;8.120;2023-05-29T10:02:31;22.90;98.50
16040;DHT22;8124;48.634;8.120;2023-05-29T10:07:37;22.90;98.00
16040;DHT22;8124;48.634;8.120;2023-05-29T10:12:45;22.90;97.30
16040;DHT22;8124;48.634;8.120;2023-05-29T10:17:53;22.90;96.90
16040;DHT22;8124;48.634;8.120;2023-05-29T10:23:01;23.10;96.70
16040;DHT22;8124;48.634;8.120;2023-05-29T10:28:07;23.20;96.00
16040;DHT22;8124;48.634;8.120;2023-05-29T10:33:42;23.40;95.80
16040;DHT22;8124;48.634;8.120;2023-05-29T10:38:52;23.60;95.30
16040;DHT22;8124;48.634;8.120;2023-05-29T10:43:56;23.70;94.80
16040;DHT22;8124;48.634;8.120;2023-05-29T10:48:59;23.80;94.10
16040;DHT22;8124;48.634;8.120;2023-05-29T10:54:07;23.90;93.60
16040;DHT22;8124;48.634;8.120;2023-05-29T10:59:10;24.10;93.20
16040;DHT22;8124;48.634;8.120;2023-05-29T11:04:36;24.20;92.80
16040;DHT22;8124;48.634;8.120;2023-05-29T11:09:40;24.10;91.80
16040;DHT22;8124;48.634;8.120;2023-05-29T11:14:48;24.40;91.70
16040;DHT22;8124;48.634;8.120;2023-05-29T11:19:56;24.50;91.30
16040;DHT22;8124;48.634;8.120;2023-05-29T11:25:01;24.80;91.10
16040;DHT22;8124;48.634;8.120;2023-05-29T11:30:07;24.70;90.40
16040;DHT22;8124;48.634;8.120;2023-05-29T11:35:10;24.60;89.00
16040;DHT22;8124;48.634;8.120;2023-05-29T11:40:16;25.00;88.40
16040;DHT22;8124;48.634;8.120;2023-05-29T11:45:20;25.10;86.70
16040;DHT22;8124;48.634;8.120;2023-05-29T11:50:25;25.20;85.50
16040;DHT22;8124;48.634;8.120;2023-05-29T11:55:30;25.30;84.00
16040;DHT22;8124;48.634;8.120;2023-05-29T12:00:35;25.40;82.50
16040;DHT22;8124;48.634;8.120;2023-05-29T12:05:48;25.70;81.40
16040;DHT22;8124;48.634;8.120;2023-05-29T12:10:57;25.50;79.20
16040;DHT22;8124;48.634;8.120;2023-05-29T12:16:01;25.50;77.50
16040;DHT22;8124;48.634;8.120;2023-05-29T12:21:05;25.60;76.20
16040;DHT22;8124;48.634;8.120;2023-05-29T12:26:12;25.70;74.80
16040;DHT22;8124;48.634;8.120;2023-05-29T12:31:45;25.90;73.70
16040;DHT22;8124;48.634;8.120;2023-05-29T12:36:48;25.90;72.10
16040;DHT22;8124;48.634;8.120;2023-05-29T12:41:54;25.70;70.30
16040;DHT22;8124;48.634;8.120;2023-05-29T12:46:57;25.70;69.30
16040;DHT22;8124;48.634;8.120;2023-05-29T12:52:05;25.70;68.00
16040;DHT22;8124;48.634;8.120;2023-05-29T12:57:11;25.70;67.00
16040;DHT22;8124;48.634;8.120;2023-05-29T13:02:14;25.70;65.80
16040;DHT22;8124;48.634;8.120;2023-05-29T13:07:18;25.80;65.10
16040;DHT22;8124;48.634;8.120;2023-05-29T13:12:22;25.90;64.50
16040;DHT22;8124;48.634;8.120;2023-05-29T13:17:25;25.70;63.20
16040;DHT22;8124;48.634;8.120;2023-05-29T13:22:28;25.90;62.90
16040;DHT22;8124;48.634;8.120;2023-05-29T13:27:35;25.90;62.20
16040;DHT22;8124;48.634;8.120;2023-05-29T13:32:39;26.00;61.60
16040;DHT22;8124;48.634;8.120;2023-05-29T13:37:42;25.90;60.80
16040;DHT22;8124;48.634;8.120;2023-05-29T13:42:47;25.90;60.00
16040;DHT22;8124;48.634;8.120;2023-05-29T13:47:50;25.90;59.60
16040;DHT22;8124;48.634;8.120;2023-05-29T13:52:53;26.20;59.60
16040;DHT22;8124;48.634;8.120;2023-05-29T13:57:57;26.10;59.00
16040;DHT22;8124;48.634;8.120;2023-05-29T14:03:00;26.10;58.50
16040;DHT22;8124;48.634;8.120;2023-05-29T14:08:04;26.20;58.20
16040;DHT22;8124;48.634;8.120;2023-05-29T14:13:08;26.20;57.80
16040;DHT22;8124;48.634;8.120;2023-05-29T14:18:11;26.30;57.40
16040;DHT22;8124;48.634;8.120;2023-05-29T14:23:14;26.30;57.00
16040;DHT22;8124;48.634;8.120;2023-05-29T14:28:19;26.30;56.60
16040;DHT22;8124;48.634;8.120;2023-05-29T14:33:22;26.40;56.20
16040;DHT22;8124;48.634;8.120;2023-05-29T14:38:26;26.10;55.30
16040;DHT22;8124;48.634;8.120;2023-05-29T14:43:30;26.30;55.10
16040;DHT22;8124;48.634;8.120;2023-05-29T14:48:33;26.40;54.60
16040;DHT22;8124;48.634;8.120;2023-05-29T14:53:36;26.40;54.20
16040;DHT22;8124;48.634;8.120;2023-05-29T14:58:41;26.40;53.80
16040;DHT22;8124;48.634;8.120;2023-05-29T15:03:44;26.50;53.50
16040;DHT22;8124;48.634;8.120;2023-05-29T15:08:48;26.50;53.00
16040;DHT22;8124;48.634;8.120;2023-05-29T15:13:53;26.40;52.40
16040;DHT22;8124;48.634;8.120;2023-05-29T15:18:56;26.50;52.10
16040;DHT22;8124;48.634;8.120;2023-05-29T15:23:59;26.50;51.60
16040;DHT22;8124;48.634;8.120;2023-05-29T15:29:04;26.60;51.40
16040;DHT22;8124;48.634;8.120;2023-05-29T15:34:07;26.50;50.90
16040;DHT22;8124;48.634;8.120;2023-05-29T15:39:10;26.60;50.50
16040;DHT22;8124;48.634;8.120;2023-05-29T15:44:15;26.40;49.90
16040;DHT22;8124;48.634;8.120;2023-05-29T15:49:18;26.50;49.60
16040;DHT22;8124;48.634;8.120;2023-05-29T15:54:21;26.60;49.30
16040;DHT22;8124;48.634;8.120;2023-05-29T15:59:25;26.60;48.90
16040;DHT22;8124;48.634;8.120;2023-05-29T16:04:28;26.60;48.70
16040;DHT22;8124;48.634;8.120;2023-05-29T16:09:33;26.70;48.40
16040;DHT22;8124;48.634;8.120;2023-05-29T16:14:37;26.90;48.40
16040;DHT22;8124;48.634;8.120;2023-05-29T16:19:40;26.90;48.10
16040;DHT22;8124;48.634;8.120;2023-05-29T16:24:45;26.60;48.10
16040;DHT22;8124;48.634;8.120;2023-05-29T16:29:49;26.60;47.20
16040;DHT22;8124;48.634;8.120;2023-05-29T16:34:52;26.60;46.90
16040;DHT22;8124;48.634;8.120;2023-05-29T16:39:56;26.60;46.60
16040;DHT22;8124;48.634;8.120;2023-05-29T16:45:02;26.60;46.40
16040;DHT22;8124;48.634;8.120;2023-05-29T16:50:05;26.90;46.50
16040;DHT22;8124;48.634;8.120;2023-05-29T16:55:09;26.60;46.00
16040;DHT22;8124;48.634;8.120;2023-05-29T17:00:14;26.60;45.60
16040;DHT22;8124;48.634;8.120;2023-05-29T17:05:18;26.80;45.60
16040;DHT22;8124;48.634;8.120;2023-05-29T17:10:21;26.80;45.40
16040;DHT22;8124;48.634;8.120;2023-05-29T17:15:25;26.70;45.00
16040;DHT22;8124;48.634;8.120;2023-05-29T17:20:30;26.50;44.60
16040;DHT22;8124;48.634;8.120;2023-05-29T17:25:35;26.50;44.40
16040;DHT22;8124;48.634;8.120;2023-05-29T17:30:39;26.60;44.30
16040;DHT22;8124;48.634;8.120;2023-05-29T17:35:42;26.40;44.60
16040;DHT22;8124;48.634;8.120;2023-05-29T17:40:46;26.40;43.70
16040;DHT22;8124;48.634;8.120;2023-05-29T17:45:51;26.40;43.60
16040;DHT22;8124;48.634;8.120;2023-05-29T17:50:55;26.40;43.40
16040;DHT22;8124;48.634;8.120;2023-05-29T17:55:59;26.40;43.20
16040;DHT22;8124;48.634;8.120;2023-05-29T18:01:05;26.30;43.00
16040;DHT22;8124;48.634;8.120;2023-05-29T18:06:08;26.10;42.70
16040;DHT22;8124;48.634;8.120;2023-05-29T18:11:11;26.10;42.50
16040;DHT22;8124;48.634;8.120;2023-05-29T18:16:17;26.10;42.40
16040;DHT22;8124;48.634;8.120;2023-05-29T18:21:20;26.00;42.30
16040;DHT22;8124;48.634;8.120;2023-05-29T18:26:24;25.90;42.00
16040;DHT22;8124;48.634;8.120;2023-05-29T18:31:30;25.90;42.00
16040;DHT22;8124;48.634;8.120;2023-05-29T18:36:33;25.90;41.80
16040;DHT22;8124;48.634;8.120;2023-05-29T18:41:37;25.90;41.80
16040;DHT22;8124;48.634;8.120;2023-05-29T18:46:41;25.70;41.50
16040;DHT22;8124;48.634;8.120;2023-05-29T18:51:44;25.40;41.20
16040;DHT22;8124;48.634;8.120;2023-05-29T18:56:47;25.30;41.10
16040;DHT22;8124;48.634;8.120;2023-05-29T19:01:51;25.10;40.90
16040;DHT22;8124;48.634;8.120;2023-05-29T19:06:54;25.30;41.40
16040;DHT22;8124;48.634;8.120;2023-05-29T19:11:58;25.00;40.80
16040;DHT22;8124;48.634;8.120;2023-05-29T19:17:03;24.80;40.70
16040;DHT22;8124;48.634;8.120;2023-05-29T19:22:08;24.60;40.50
16040;DHT22;8124;48.634;8.120;2023-05-29T19:27:11;24.60;40.60
16040;DHT22;8124;48.634;8.120;2023-05-29T19:32:17;24.80;40.70
16040;DHT22;8124;48.634;8.120;2023-05-29T19:37:22;24.80;40.70
16040;DHT22;8124;48.634;8.120;2023-05-29T19:42:25;24.70;40.70
16040;DHT22;8124;48.634;8.120;2023-05-29T19:47:30;24.50;40.50
16040;DHT22;8124;48.634;8.120;2023-05-29T19:52:33;24.40;40.40
16040;DHT22;8124;48.634;8.120;2023-05-29T19:57:36;24.10;40.20
16040;DHT22;8124;48.634;8.120;2023-05-29T20:02:41;23.90;40.10
16040;DHT22;8124;48.634;8.120;2023-05-29T20:07:44;24.00;40.20
16040;DHT22;8124;48.634;8.120;2023-05-29T20:12:47;24.20;40.40
16040;DHT22;8124;48.634;8.120;2023-05-29T20:17:52;24.10;40.40
16040;DHT22;8124;48.634;8.120;2023-05-29T20:22:58;24.00;40.30
16040;DHT22;8124;48.634;8.120;2023-05-29T20:28:01;23.70;40.30
16040;DHT22;8124;48.634;8.120;2023-05-29T20:33:05;23.20;40.10
16040;DHT22;8124;48.634;8.120;2023-05-29T20:38:12;22.70;40.00
16040;DHT22;8124;48.634;8.120;2023-05-29T20:43:15;22.60;40.10
16040;DHT22;8124;48.634;8.120;2023-05-29T20:48:24;22.90;40.50
16040;DHT22;8124;48.634;8.120;2023-05-29T20:53:27;22.80;40.60
16040;DHT22;8124;48.634;8.120;2023-05-29T20:58:30;22.60;40.70
16040;DHT22;8124;48.634;8.120;2023-05-29T21:03:35;22.50;40.90
16040;DHT22;8124;48.634;8.120;2023-05-29T21:08:38;22.80;41.50
16040;DHT22;8124;48.634;8.120;2023-05-29T21:13:41;22.90;41.90
16040;DHT22;8124;48.634;8.120;2023-05-29T21:18:45;22.90;42.30
16040;DHT22;8124;48.634;8.120;2023-05-29T21:23:48;22.80;42.60
16040;DHT22;8124;48.634;8.120;2023-05-29T21:28:53;22.70;42.80
16040;DHT22;8124;48.634;8.120;2023-05-29T21:33:57;22.80;43.30
16040;DHT22;8124;48.634;8.120;2023-05-29T21:39:00;22.50;43.40
16040;DHT22;8124;48.634;8.120;2023-05-29T21:44:03;22.60;43.80
16040;DHT22;8124;48.634;8.120;2023-05-29T21:49:10;22.50;44.00
16040;DHT22;8124;48.634;8.120;2023-05-29T21:54:13;22.30;44.20
16040;DHT22;8124;48.634;8.120;2023-05-29T21:59:16;22.20;44.50
16040;DHT22;8124;48.634;8.120;2023-05-29T22:04:20;21.70;44.60
16040;DHT22;8124;48.634;8.120;2023-05-29T22:09:23;21.70;45.30
16040;DHT22;8124;48.634;8.120;2023-05-29T22:14:27;21.60;45.60
16040;DHT22;8124;48.634;8.120;2023-05-29T22:19:31;21.30;45.80
16040;DHT22;8124;48.634;8.120;2023-05-29T22:24:35;21.10;46.00
16040;DHT22;8124;48.634;8.120;2023-05-29T22:29:38;21.20;46.70
16040;DHT22;8124;48.634;8.120;2023-05-29T22:34:43;21.20;47.30
16040;DHT22;8124;48.634;8.120;2023-05-29T22:39:46;21.30;48.00
16040;DHT22;8124;48.634;8.120;2023-05-29T22:44:49;21.10;48.40
16040;DHT22;8124;48.634;8.120;2023-05-29T22:49:53;21.20;49.10
16040;DHT22;8124;48.634;8.120;2023-05-29T22:54:57;21.00;49.40
16040;DHT22;8124;48.634;8.120;2023-05-29T23:00:01;20.90;49.80
16040;DHT22;8124;48.634;8.120;2023-05-29T23:05:12;20.90;50.30
16040;DHT22;8124;48.634;8.120;2023-05-29T23:10:16;20.80;51.00
16040;DHT22;8124;48.634;8.120;2023-05-29T23:15:19;20.70;51.60
16040;DHT22;8124;48.634;8.120;2023-05-29T23:20:24;20.60;52.10
16040;DHT22;8124;48.634;8.120;2023-05-29T23:25:27;20.50;52.80
16040;DHT22;8124;48.634;8.120;2023-05-29T23:30:30;20.30;53.50
16040;DHT22;8124;48.634;8.120;2023-05-29T23:35:34;19.90;54.10
16040;DHT22;8124;48.634;8.120;2023-05-29T23:40:38;19.80;55.60
16040;DHT22;8124;48.634;8.120;2023-05-29T23:45:40;19.70;56.90
16040;DHT22;8124;48.634;8.120;2023-05-29T23:50:45;19.90;58.20
16040;DHT22;8124;48.634;8.120;2023-05-29T23:55:48;19.40;58.60
